sensor_id;sensor_type;location;lat;lon;timestamp;P1;durP1;ratioP1;P2;durP2;ratioP2
23782;SDS011;12071;50.850;4.446;2023-03-01T00:02:19;19.30;;;11.70;;
23782;SDS011;12071;50.850;4.446;2023-03-01T00:04:45;19.30;;;12.00;;
23782;SDS011;12071;50.850;4.446;2023-03-01T00:07:11;18.42;;;11.90;;
23782;SDS011;12071;50.850;4.446;2023-03-01T00:09:36;16.30;;;11.55;;
23782;SDS011;12071;50.850;4.446;2023-03-01T00:12:03;20.25;;;11.80;;
23782;SDS011;12071;50.850;4.446;2023-03-01T00:14:29;16.10;;;11.75;;
23782;SDS011;12071;50.850;4.446;2023-03-01T00:16:54;16.75;;;11.80;;
23782;SDS011;12071;50.850;4.446;2023-03-01T00:19:20;15.20;;;11.35;;
23782;SDS011;12071;50.850;4.446;2023-03-01T00:21:47;16.55;;;11.52;;
23782;SDS011;12071;50.850;4.446;2023-03-01T00:24:13;15.82;;;11.55;;
23782;SDS011;12071;50.850;4.446;2023-03-01T00:26:38;14.90;;;11.35;;
23782;SDS011;12071;50.850;4.446;2023-03-01T00:29:04;16.60;;;11.63;;
23782;SDS011;12071;50.850;4.446;2023-03-01T00:31:30;16.60;;;11.85;;
23782;SDS011;12071;50.850;4.446;2023-03-01T00:33:59;17.58;;;11.55;;
23782;SDS011;12071;50.850;4.446;2023-03-01T00:36:27;13.68;;;11.35;;
23782;SDS011;12071;50.850;4.446;2023-03-01T00:38:54;20.60;;;11.90;;
23782;SDS011;12071;50.850;4.446;2023-03-01T00:41:20;18.65;;;11.55;;
23782;SDS011;12071;50.850;4.446;2023-03-01T00:43:48;18.33;;;11.57;;
23782;SDS011;12071;50.850;4.446;2023-03-01T00:46:15;16.73;;;11.77;;
23782;SDS011;12071;50.850;4.446;2023-03-01T00:48:45;16.40;;;11.50;;
23782;SDS011;12071;50.850;4.446;2023-03-01T00:51:13;17.00;;;12.10;;
23782;SDS011;12071;50.850;4.446;2023-03-01T00:53:43;18.95;;;12.40;;
23782;SDS011;12071;50.850;4.446;2023-03-01T00:56:10;18.20;;;12.05;;
23782;SDS011;12071;50.850;4.446;2023-03-01T00:58:36;16.10;;;11.80;;
23782;SDS011;12071;50.850;4.446;2023-03-01T01:01:09;15.88;;;11.82;;
23782;SDS011;12071;50.850;4.446;2023-03-01T01:08:42;18.88;;;13.05;;
23782;SDS011;12071;50.850;4.446;2023-03-01T01:11:09;16.20;;;12.35;;
23782;SDS011;12071;50.850;4.446;2023-03-01T01:13:35;18.63;;;12.60;;
23782;SDS011;12071;50.850;4.446;2023-03-01T01:16:02;19.23;;;12.55;;
23782;SDS011;12071;50.850;4.446;2023-03-01T01:18:27;16.63;;;12.18;;
23782;SDS011;12071;50.850;4.446;2023-03-01T01:20:53;17.52;;;12.38;;
23782;SDS011;12071;50.850;4.446;2023-03-01T01:23:18;16.00;;;12.10;;
23782;SDS011;12071;50.850;4.446;2023-03-01T01:25:44;17.27;;;12.27;;
23782;SDS011;12071;50.850;4.446;2023-03-01T01:28:10;17.50;;;12.57;;
23782;SDS011;12071;50.850;4.446;2023-03-01T01:30:35;16.83;;;12.45;;
23782;SDS011;12071;50.850;4.446;2023-03-01T01:33:01;17.85;;;12.65;;
23782;SDS011;12071;50.850;4.446;2023-03-01T01:35:27;17.27;;;12.00;;
23782;SDS011;12071;50.850;4.446;2023-03-01T01:37:53;19.02;;;11.73;;
23782;SDS011;12071;50.850;4.446;2023-03-01T01:40:18;20.05;;;12.20;;
23782;SDS011;12071;50.850;4.446;2023-03-01T01:42:44;16.55;;;11.88;;
23782;SDS011;12071;50.850;4.446;2023-03-01T01:45:31;16.25;;;11.80;;
23782;SDS011;12071;50.850;4.446;2023-03-01T01:48:02;16.35;;;12.02;;
23782;SDS011;12071;50.850;4.446;2023-03-01T01:50:32;15.30;;;11.00;;
23782;SDS011;12071;50.850;4.446;2023-03-01T01:53:07;14.38;;;11.30;;
23782;SDS011;12071;50.850;4.446;2023-03-01T01:55:39;15.60;;;11.20;;
23782;SDS011;12071;50.850;4.446;2023-03-01T01:58:11;15.15;;;10.98;;
23782;SDS011;12071;50.850;4.446;2023-03-01T02:00:40;16.45;;;11.20;;
23782;SDS011;12071;50.850;4.446;2023-03-01T02:03:08;17.42;;;10.77;;
23782;SDS011;12071;50.850;4.446;2023-03-01T02:05:46;14.07;;;10.68;;
23782;SDS011;12071;50.850;4.446;2023-03-01T02:08:19;15.38;;;10.30;;
23782;SDS011;12071;50.850;4.446;2023-03-01T02:10:46;15.55;;;10.85;;
23782;SDS011;12071;50.850;4.446;2023-03-01T02:13:14;15.52;;;10.45;;
23782;SDS011;12071;50.850;4.446;2023-03-01T02:15:40;12.85;;;9.88;;
23782;SDS011;12071;50.850;4.446;2023-03-01T02:18:08;15.07;;;11.10;;
23782;SDS011;12071;50.850;4.446;2023-03-01T02:23:27;15.48;;;10.00;;
23782;SDS011;12071;50.850;4.446;2023-03-01T02:28:50;14.95;;;11.02;;
23782;SDS011;12071;50.850;4.446;2023-03-01T02:31:17;16.10;;;10.68;;
23782;SDS011;12071;50.850;4.446;2023-03-01T02:34:04;15.90;;;11.75;;
23782;SDS011;12071;50.850;4.446;2023-03-01T02:36:33;16.40;;;10.85;;
23782;SDS011;12071;50.850;4.446;2023-03-01T02:39:13;16.07;;;11.53;;
23782;SDS011;12071;50.850;4.446;2023-03-01T02:41:47;14.73;;;10.70;;
23782;SDS011;12071;50.850;4.446;2023-03-01T02:44:16;16.08;;;11.20;;
23782;SDS011;12071;50.850;4.446;2023-03-01T02:46:49;16.88;;;11.50;;
23782;SDS011;12071;50.850;4.446;2023-03-01T02:55:19;19.52;;;11.98;;
23782;SDS011;12071;50.850;4.446;2023-03-01T02:57:29;16.92;;;11.48;;
23782;SDS011;12071;50.850;4.446;2023-03-01T02:59:59;16.63;;;11.70;;
23782;SDS011;12071;50.850;4.446;2023-03-01T03:02:31;17.35;;;12.07;;
23782;SDS011;12071;50.850;4.446;2023-03-01T03:07:31;17.85;;;11.63;;
23782;SDS011;12071;50.850;4.446;2023-03-01T03:09:58;16.63;;;11.70;;
23782;SDS011;12071;50.850;4.446;2023-03-01T03:12:23;15.55;;;11.98;;
23782;SDS011;12071;50.850;4.446;2023-03-01T03:14:49;17.48;;;12.00;;
23782;SDS011;12071;50.850;4.446;2023-03-01T03:17:15;19.27;;;12.07;;
23782;SDS011;12071;50.850;4.446;2023-03-01T03:19:40;15.70;;;12.18;;
23782;SDS011;12071;50.850;4.446;2023-03-01T03:22:06;17.40;;;11.68;;
23782;SDS011;12071;50.850;4.446;2023-03-01T03:24:33;16.05;;;12.35;;
23782;SDS011;12071;50.850;4.446;2023-03-01T03:27:03;18.83;;;12.63;;
23782;SDS011;12071;50.850;4.446;2023-03-01T03:29:29;18.60;;;12.10;;
23782;SDS011;12071;50.850;4.446;2023-03-01T03:31:57;18.30;;;12.30;;
23782;SDS011;12071;50.850;4.446;2023-03-01T03:34:23;16.55;;;12.13;;
23782;SDS011;12071;50.850;4.446;2023-03-01T03:36:56;18.50;;;12.18;;
23782;SDS011;12071;50.850;4.446;2023-03-01T03:39:24;21.95;;;11.75;;
23782;SDS011;12071;50.850;4.446;2023-03-01T03:41:51;16.95;;;11.95;;
23782;SDS011;12071;50.850;4.446;2023-03-01T03:44:17;16.05;;;11.88;;
23782;SDS011;12071;50.850;4.446;2023-03-01T03:46:43;16.98;;;12.35;;
23782;SDS011;12071;50.850;4.446;2023-03-01T03:49:09;15.80;;;11.32;;
23782;SDS011;12071;50.850;4.446;2023-03-01T03:51:34;15.95;;;11.60;;
23782;SDS011;12071;50.850;4.446;2023-03-01T03:54:00;17.42;;;12.50;;
23782;SDS011;12071;50.850;4.446;2023-03-01T03:56:25;16.63;;;11.43;;
23782;SDS011;12071;50.850;4.446;2023-03-01T03:58:51;18.27;;;12.25;;
23782;SDS011;12071;50.850;4.446;2023-03-01T04:01:17;16.45;;;11.52;;
23782;SDS011;12071;50.850;4.446;2023-03-01T04:03:43;15.88;;;11.68;;
23782;SDS011;12071;50.850;4.446;2023-03-01T04:06:14;16.27;;;11.90;;
23782;SDS011;12071;50.850;4.446;2023-03-01T04:08:40;15.15;;;11.25;;
23782;SDS011;12071;50.850;4.446;2023-03-01T04:11:06;19.17;;;10.98;;
23782;SDS011;12071;50.850;4.446;2023-03-01T04:13:51;18.60;;;11.80;;
23782;SDS011;12071;50.850;4.446;2023-03-01T04:16:18;19.73;;;12.15;;
23782;SDS011;12071;50.850;4.446;2023-03-01T04:18:44;16.08;;;12.00;;
23782;SDS011;12071;50.850;4.446;2023-03-01T04:21:10;17.13;;;11.52;;
23782;SDS011;12071;50.850;4.446;2023-03-01T04:23:36;18.75;;;11.07;;
23782;SDS011;12071;50.850;4.446;2023-03-01T04:26:03;17.48;;;12.32;;
23782;SDS011;12071;50.850;4.446;2023-03-01T04:28:36;17.02;;;11.93;;
23782;SDS011;12071;50.850;4.446;2023-03-01T04:31:23;17.23;;;11.98;;
23782;SDS011;12071;50.850;4.446;2023-03-01T04:33:49;16.65;;;11.98;;
23782;SDS011;12071;50.850;4.446;2023-03-01T04:36:17;18.67;;;11.85;;
23782;SDS011;12071;50.850;4.446;2023-03-01T04:38:44;18.58;;;12.23;;
23782;SDS011;12071;50.850;4.446;2023-03-01T04:41:12;17.27;;;11.70;;
23782;SDS011;12071;50.850;4.446;2023-03-01T04:43:39;18.60;;;12.35;;
23782;SDS011;12071;50.850;4.446;2023-03-01T04:46:06;19.33;;;12.02;;
23782;SDS011;12071;50.850;4.446;2023-03-01T04:48:34;19.50;;;12.60;;
23782;SDS011;12071;50.850;4.446;2023-03-01T04:51:01;17.88;;;12.32;;
23782;SDS011;12071;50.850;4.446;2023-03-01T04:53:27;16.35;;;11.75;;
23782;SDS011;12071;50.850;4.446;2023-03-01T04:55:54;17.08;;;12.02;;
23782;SDS011;12071;50.850;4.446;2023-03-01T04:58:21;16.25;;;11.63;;
23782;SDS011;12071;50.850;4.446;2023-03-01T05:00:48;18.75;;;12.38;;
23782;SDS011;12071;50.850;4.446;2023-03-01T05:03:13;18.15;;;12.35;;
23782;SDS011;12071;50.850;4.446;2023-03-01T05:05:43;18.02;;;12.32;;
23782;SDS011;12071;50.850;4.446;2023-03-01T05:08:10;17.85;;;12.65;;
23782;SDS011;12071;50.850;4.446;2023-03-01T05:10:52;19.90;;;12.43;;
23782;SDS011;12071;50.850;4.446;2023-03-01T05:13:18;18.33;;;11.77;;
23782;SDS011;12071;50.850;4.446;2023-03-01T05:15:48;19.67;;;12.45;;
23782;SDS011;12071;50.850;4.446;2023-03-01T05:18:22;16.70;;;12.27;;
23782;SDS011;12071;50.850;4.446;2023-03-01T05:20:51;17.17;;;11.73;;
23782;SDS011;12071;50.850;4.446;2023-03-01T05:23:23;17.23;;;11.85;;
23782;SDS011;12071;50.850;4.446;2023-03-01T05:25:49;17.60;;;11.82;;
23782;SDS011;12071;50.850;4.446;2023-03-01T05:28:17;16.70;;;11.80;;
23782;SDS011;12071;50.850;4.446;2023-03-01T05:30:44;22.25;;;12.10;;
23782;SDS011;12071;50.850;4.446;2023-03-01T05:33:10;20.98;;;11.63;;
23782;SDS011;12071;50.850;4.446;2023-03-01T05:35:42;19.60;;;12.57;;
23782;SDS011;12071;50.850;4.446;2023-03-01T05:38:12;20.53;;;14.10;;
23782;SDS011;12071;50.850;4.446;2023-03-01T05:40:38;20.02;;;13.23;;
23782;SDS011;12071;50.850;4.446;2023-03-01T05:43:05;19.83;;;12.93;;
23782;SDS011;12071;50.850;4.446;2023-03-01T05:45:31;22.65;;;15.48;;
23782;SDS011;12071;50.850;4.446;2023-03-01T05:47:57;25.35;;;13.00;;
23782;SDS011;12071;50.850;4.446;2023-03-01T05:50:31;16.90;;;12.38;;
23782;SDS011;12071;50.850;4.446;2023-03-01T05:53:00;22.40;;;13.73;;
23782;SDS011;12071;50.850;4.446;2023-03-01T05:55:31;25.15;;;12.73;;
23782;SDS011;12071;50.850;4.446;2023-03-01T05:57:58;25.02;;;12.85;;
23782;SDS011;12071;50.850;4.446;2023-03-01T06:00:25;20.63;;;14.65;;
23782;SDS011;12071;50.850;4.446;2023-03-01T06:02:51;20.02;;;14.32;;
23782;SDS011;12071;50.850;4.446;2023-03-01T06:05:18;21.65;;;14.27;;
23782;SDS011;12071;50.850;4.446;2023-03-01T06:07:44;21.02;;;13.80;;
23782;SDS011;12071;50.850;4.446;2023-03-01T06:10:10;27.23;;;13.50;;
23782;SDS011;12071;50.850;4.446;2023-03-01T06:12:37;19.55;;;13.10;;
23782;SDS011;12071;50.850;4.446;2023-03-01T06:15:04;20.08;;;13.82;;
23782;SDS011;12071;50.850;4.446;2023-03-01T06:17:32;21.60;;;13.13;;
23782;SDS011;12071;50.850;4.446;2023-03-01T06:20:05;21.48;;;13.00;;
23782;SDS011;12071;50.850;4.446;2023-03-01T06:22:39;21.33;;;13.20;;
23782;SDS011;12071;50.850;4.446;2023-03-01T06:25:06;29.50;;;13.52;;
23782;SDS011;12071;50.850;4.446;2023-03-01T06:27:33;28.02;;;13.70;;
23782;SDS011;12071;50.850;4.446;2023-03-01T06:29:58;31.98;;;13.52;;
23782;SDS011;12071;50.850;4.446;2023-03-01T06:32:24;43.28;;;13.77;;
23782;SDS011;12071;50.850;4.446;2023-03-01T06:34:50;29.05;;;13.20;;
23782;SDS011;12071;50.850;4.446;2023-03-01T06:37:15;42.67;;;13.00;;
23782;SDS011;12071;50.850;4.446;2023-03-01T06:39:41;27.60;;;12.82;;
23782;SDS011;12071;50.850;4.446;2023-03-01T06:42:07;22.08;;;13.18;;
23782;SDS011;12071;50.850;4.446;2023-03-01T06:44:34;26.77;;;12.88;;
23782;SDS011;12071;50.850;4.446;2023-03-01T06:47:00;20.52;;;12.95;;
23782;SDS011;12071;50.850;4.446;2023-03-01T06:49:26;20.70;;;12.43;;
23782;SDS011;12071;50.850;4.446;2023-03-01T06:51:52;23.25;;;12.75;;
23782;SDS011;12071;50.850;4.446;2023-03-01T06:54:17;26.15;;;12.45;;
23782;SDS011;12071;50.850;4.446;2023-03-01T06:56:46;26.60;;;12.77;;
23782;SDS011;12071;50.850;4.446;2023-03-01T06:59:11;22.23;;;11.95;;
23782;SDS011;12071;50.850;4.446;2023-03-01T07:01:37;22.35;;;12.18;;
23782;SDS011;12071;50.850;4.446;2023-03-01T07:04:03;26.10;;;12.60;;
23782;SDS011;12071;50.850;4.446;2023-03-01T07:06:29;28.60;;;12.68;;
23782;SDS011;12071;50.850;4.446;2023-03-01T07:08:54;21.65;;;12.30;;
23782;SDS011;12071;50.850;4.446;2023-03-01T07:11:20;20.73;;;11.93;;
23782;SDS011;12071;50.850;4.446;2023-03-01T07:13:46;26.83;;;12.35;;
23782;SDS011;12071;50.850;4.446;2023-03-01T07:16:11;19.25;;;12.10;;
23782;SDS011;12071;50.850;4.446;2023-03-01T07:18:39;21.60;;;12.95;;
23782;SDS011;12071;50.850;4.446;2023-03-01T07:21:08;19.52;;;11.40;;
23782;SDS011;12071;50.850;4.446;2023-03-01T07:23:36;21.08;;;12.88;;
23782;SDS011;12071;50.850;4.446;2023-03-01T07:26:01;18.17;;;11.82;;
23782;SDS011;12071;50.850;4.446;2023-03-01T07:28:27;16.45;;;12.40;;
23782;SDS011;12071;50.850;4.446;2023-03-01T07:30:53;19.92;;;11.73;;
23782;SDS011;12071;50.850;4.446;2023-03-01T07:33:19;17.80;;;11.63;;
23782;SDS011;12071;50.850;4.446;2023-03-01T07:35:45;18.65;;;11.57;;
23782;SDS011;12071;50.850;4.446;2023-03-01T07:38:10;19.20;;;13.35;;
23782;SDS011;12071;50.850;4.446;2023-03-01T07:40:36;22.13;;;12.20;;
23782;SDS011;12071;50.850;4.446;2023-03-01T07:43:02;16.48;;;10.75;;
23782;SDS011;12071;50.850;4.446;2023-03-01T07:45:28;18.92;;;12.35;;
23782;SDS011;12071;50.850;4.446;2023-03-01T07:47:55;16.15;;;10.85;;
23782;SDS011;12071;50.850;4.446;2023-03-01T07:50:21;16.70;;;11.77;;
23782;SDS011;12071;50.850;4.446;2023-03-01T07:52:47;27.10;;;12.18;;
23782;SDS011;12071;50.850;4.446;2023-03-01T07:55:14;17.98;;;11.60;;
23782;SDS011;12071;50.850;4.446;2023-03-01T07:57:41;18.52;;;11.70;;
23782;SDS011;12071;50.850;4.446;2023-03-01T08:00:07;26.70;;;12.27;;
23782;SDS011;12071;50.850;4.446;2023-03-01T08:02:35;17.52;;;11.57;;
23782;SDS011;12071;50.850;4.446;2023-03-01T08:05:00;20.77;;;11.40;;
23782;SDS011;12071;50.850;4.446;2023-03-01T08:07:26;20.95;;;11.70;;
23782;SDS011;12071;50.850;4.446;2023-03-01T08:09:51;19.60;;;11.63;;
23782;SDS011;12071;50.850;4.446;2023-03-01T08:12:17;22.30;;;11.82;;
23782;SDS011;12071;50.850;4.446;2023-03-01T08:14:42;17.88;;;11.70;;
23782;SDS011;12071;50.850;4.446;2023-03-01T08:17:08;17.42;;;11.77;;
23782;SDS011;12071;50.850;4.446;2023-03-01T08:19:34;20.48;;;11.77;;
23782;SDS011;12071;50.850;4.446;2023-03-01T08:22:00;20.98;;;12.05;;
23782;SDS011;12071;50.850;4.446;2023-03-01T08:24:27;18.23;;;11.13;;
23782;SDS011;12071;50.850;4.446;2023-03-01T08:26:53;21.80;;;11.80;;
23782;SDS011;12071;50.850;4.446;2023-03-01T08:29:19;18.42;;;11.85;;
23782;SDS011;12071;50.850;4.446;2023-03-01T08:31:44;20.65;;;12.95;;
23782;SDS011;12071;50.850;4.446;2023-03-01T08:34:11;18.45;;;11.85;;
23782;SDS011;12071;50.850;4.446;2023-03-01T08:36:39;18.33;;;11.48;;
23782;SDS011;12071;50.850;4.446;2023-03-01T08:39:06;18.92;;;12.95;;
23782;SDS011;12071;50.850;4.446;2023-03-01T08:41:33;16.67;;;11.85;;
23782;SDS011;12071;50.850;4.446;2023-03-01T08:43:59;25.35;;;12.20;;
23782;SDS011;12071;50.850;4.446;2023-03-01T08:46:28;19.20;;;11.80;;
23782;SDS011;12071;50.850;4.446;2023-03-01T08:49:02;22.52;;;11.80;;
23782;SDS011;12071;50.850;4.446;2023-03-01T08:51:32;17.75;;;11.27;;
23782;SDS011;12071;50.850;4.446;2023-03-01T08:54:02;23.23;;;11.38;;
23782;SDS011;12071;50.850;4.446;2023-03-01T08:56:28;18.30;;;11.63;;
23782;SDS011;12071;50.850;4.446;2023-03-01T08:58:55;24.17;;;11.88;;
23782;SDS011;12071;50.850;4.446;2023-03-01T09:01:21;17.85;;;11.15;;
23782;SDS011;12071;50.850;4.446;2023-03-01T09:03:46;17.50;;;11.73;;
23782;SDS011;12071;50.850;4.446;2023-03-01T09:06:12;19.30;;;11.40;;
23782;SDS011;12071;50.850;4.446;2023-03-01T09:08:40;16.58;;;11.65;;
23782;SDS011;12071;50.850;4.446;2023-03-01T09:11:08;20.30;;;11.50;;
23782;SDS011;12071;50.850;4.446;2023-03-01T09:13:35;16.48;;;11.90;;
23782;SDS011;12071;50.850;4.446;2023-03-01T09:16:02;20.98;;;11.80;;
23782;SDS011;12071;50.850;4.446;2023-03-01T09:18:29;16.35;;;11.82;;
23782;SDS011;12071;50.850;4.446;2023-03-01T09:21:08;18.83;;;11.70;;
23782;SDS011;12071;50.850;4.446;2023-03-01T09:23:40;21.10;;;12.30;;
23782;SDS011;12071;50.850;4.446;2023-03-01T09:26:08;17.30;;;11.40;;
23782;SDS011;12071;50.850;4.446;2023-03-01T09:28:35;18.20;;;11.60;;
23782;SDS011;12071;50.850;4.446;2023-03-01T09:31:02;17.08;;;11.13;;
23782;SDS011;12071;50.850;4.446;2023-03-01T09:33:29;16.60;;;11.25;;
23782;SDS011;12071;50.850;4.446;2023-03-01T09:35:57;16.70;;;11.15;;
23782;SDS011;12071;50.850;4.446;2023-03-01T09:38:23;23.10;;;11.70;;
23782;SDS011;12071;50.850;4.446;2023-03-01T09:40:49;22.55;;;12.15;;
23782;SDS011;12071;50.850;4.446;2023-03-01T09:46:06;21.40;;;11.40;;
23782;SDS011;12071;50.850;4.446;2023-03-01T09:48:42;16.52;;;11.38;;
23782;SDS011;12071;50.850;4.446;2023-03-01T09:51:29;15.63;;;11.13;;
23782;SDS011;12071;50.850;4.446;2023-03-01T09:53:57;17.40;;;12.30;;
23782;SDS011;12071;50.850;4.446;2023-03-01T10:09:39;19.45;;;12.50;;
23782;SDS011;12071;50.850;4.446;2023-03-01T10:12:08;19.80;;;12.13;;
23782;SDS011;12071;50.850;4.446;2023-03-01T10:19:48;22.15;;;11.40;;
23782;SDS011;12071;50.850;4.446;2023-03-01T10:24:47;15.48;;;10.98;;
23782;SDS011;12071;50.850;4.446;2023-03-01T10:27:25;16.17;;;11.63;;
23782;SDS011;12071;50.850;4.446;2023-03-01T10:30:02;15.40;;;10.10;;
23782;SDS011;12071;50.850;4.446;2023-03-01T10:32:38;17.77;;;11.25;;
23782;SDS011;12071;50.850;4.446;2023-03-01T10:35:24;22.05;;;11.50;;
23782;SDS011;12071;50.850;4.446;2023-03-01T10:38:11;17.65;;;11.52;;
23782;SDS011;12071;50.850;4.446;2023-03-01T10:43:25;15.60;;;11.07;;
23782;SDS011;12071;50.850;4.446;2023-03-01T10:45:52;17.40;;;11.02;;
23782;SDS011;12071;50.850;4.446;2023-03-01T10:48:25;15.55;;;11.00;;
23782;SDS011;12071;50.850;4.446;2023-03-01T10:53:40;16.40;;;10.27;;
23782;SDS011;12071;50.850;4.446;2023-03-01T10:56:08;13.65;;;10.25;;
23782;SDS011;12071;50.850;4.446;2023-03-01T10:58:36;16.00;;;10.25;;
23782;SDS011;12071;50.850;4.446;2023-03-01T11:01:05;17.52;;;10.98;;
23782;SDS011;12071;50.850;4.446;2023-03-01T11:03:40;15.15;;;10.57;;
23782;SDS011;12071;50.850;4.446;2023-03-01T11:08:41;16.88;;;9.82;;
23782;SDS011;12071;50.850;4.446;2023-03-01T11:13:39;13.98;;;9.77;;
23782;SDS011;12071;50.850;4.446;2023-03-01T11:16:35;16.17;;;9.90;;
23782;SDS011;12071;50.850;4.446;2023-03-01T11:21:35;15.38;;;9.13;;
23782;SDS011;12071;50.850;4.446;2023-03-01T11:24:04;13.20;;;9.85;;
23782;SDS011;12071;50.850;4.446;2023-03-01T11:29:04;13.45;;;9.25;;
23782;SDS011;12071;50.850;4.446;2023-03-01T11:31:35;14.18;;;9.38;;
23782;SDS011;12071;50.850;4.446;2023-03-01T11:34:11;13.73;;;9.18;;
23782;SDS011;12071;50.850;4.446;2023-03-01T11:36:46;12.75;;;9.00;;
23782;SDS011;12071;50.850;4.446;2023-03-01T11:39:22;16.30;;;8.90;;
23782;SDS011;12071;50.850;4.446;2023-03-01T11:41:51;13.10;;;8.88;;
23782;SDS011;12071;50.850;4.446;2023-03-01T11:44:28;14.13;;;8.63;;
23782;SDS011;12071;50.850;4.446;2023-03-01T11:57:39;11.77;;;7.75;;
23782;SDS011;12071;50.850;4.446;2023-03-01T12:00:25;15.70;;;8.65;;
23782;SDS011;12071;50.850;4.446;2023-03-01T12:08:41;11.93;;;8.35;;
23782;SDS011;12071;50.850;4.446;2023-03-01T12:11:23;11.23;;;8.82;;
23782;SDS011;12071;50.850;4.446;2023-03-01T12:19:33;16.17;;;8.55;;
23782;SDS011;12071;50.850;4.446;2023-03-01T12:25:34;11.65;;;7.82;;
23782;SDS011;12071;50.850;4.446;2023-03-01T12:45:31;11.85;;;8.77;;
23782;SDS011;12071;50.850;4.446;2023-03-01T12:51:15;13.45;;;8.50;;
23782;SDS011;12071;50.850;4.446;2023-03-01T12:53:47;10.65;;;8.07;;
23782;SDS011;12071;50.850;4.446;2023-03-01T12:56:19;10.52;;;7.57;;
23782;SDS011;12071;50.850;4.446;2023-03-01T13:04:53;12.20;;;8.40;;
23782;SDS011;12071;50.850;4.446;2023-03-01T13:07:40;15.73;;;8.88;;
23782;SDS011;12071;50.850;4.446;2023-03-01T13:13:23;12.20;;;8.60;;
23782;SDS011;12071;50.850;4.446;2023-03-01T13:15:50;15.05;;;8.32;;
23782;SDS011;12071;50.850;4.446;2023-03-01T13:20:51;12.70;;;7.88;;
23782;SDS011;12071;50.850;4.446;2023-03-01T13:31:02;14.27;;;8.38;;
23782;SDS011;12071;50.850;4.446;2023-03-01T13:35:55;11.75;;;7.88;;
23782;SDS011;12071;50.850;4.446;2023-03-01T13:46:57;13.45;;;8.50;;
23782;SDS011;12071;50.850;4.446;2023-03-01T13:49:27;10.38;;;7.60;;
23782;SDS011;12071;50.850;4.446;2023-03-01T13:51:54;11.55;;;7.72;;
23782;SDS011;12071;50.850;4.446;2023-03-01T13:54:25;12.05;;;7.95;;
23782;SDS011;12071;50.850;4.446;2023-03-01T13:56:55;11.05;;;7.85;;
23782;SDS011;12071;50.850;4.446;2023-03-01T13:59:24;11.85;;;8.13;;
23782;SDS011;12071;50.850;4.446;2023-03-01T14:01:58;11.80;;;8.15;;
23782;SDS011;12071;50.850;4.446;2023-03-01T14:04:29;13.82;;;8.63;;
23782;SDS011;12071;50.850;4.446;2023-03-01T14:07:19;11.90;;;8.13;;
23782;SDS011;12071;50.850;4.446;2023-03-01T14:09:48;14.50;;;8.25;;
23782;SDS011;12071;50.850;4.446;2023-03-01T14:20:52;12.45;;;8.38;;
23782;SDS011;12071;50.850;4.446;2023-03-01T14:23:19;15.32;;;8.80;;
23782;SDS011;12071;50.850;4.446;2023-03-01T14:25:47;11.35;;;8.50;;
23782;SDS011;12071;50.850;4.446;2023-03-01T14:30:52;13.45;;;9.15;;
23782;SDS011;12071;50.850;4.446;2023-03-01T14:36:03;16.00;;;8.68;;
23782;SDS011;12071;50.850;4.446;2023-03-01T14:38:36;14.20;;;9.02;;
23782;SDS011;12071;50.850;4.446;2023-03-01T14:41:25;10.25;;;8.23;;
23782;SDS011;12071;50.850;4.446;2023-03-01T14:43:58;11.43;;;8.48;;
23782;SDS011;12071;50.850;4.446;2023-03-01T14:49:02;11.73;;;7.57;;
23782;SDS011;12071;50.850;4.446;2023-03-01T14:51:41;11.30;;;7.90;;
23782;SDS011;12071;50.850;4.446;2023-03-01T14:54:22;10.73;;;8.02;;
23782;SDS011;12071;50.850;4.446;2023-03-01T14:57:18;12.65;;;8.60;;
23782;SDS011;12071;50.850;4.446;2023-03-01T14:59:46;12.45;;;8.35;;
23782;SDS011;12071;50.850;4.446;2023-03-01T15:02:16;12.30;;;8.60;;
23782;SDS011;12071;50.850;4.446;2023-03-01T15:04:48;10.27;;;8.00;;
23782;SDS011;12071;50.850;4.446;2023-03-01T15:07:16;10.00;;;7.30;;
23782;SDS011;12071;50.850;4.446;2023-03-01T15:09:43;12.07;;;8.55;;
23782;SDS011;12071;50.850;4.446;2023-03-01T15:14:50;13.45;;;8.55;;
23782;SDS011;12071;50.850;4.446;2023-03-01T15:19:57;12.57;;;8.68;;
23782;SDS011;12071;50.850;4.446;2023-03-01T15:22:24;13.38;;;9.07;;
23782;SDS011;12071;50.850;4.446;2023-03-01T15:24:51;11.75;;;9.30;;
23782;SDS011;12071;50.850;4.446;2023-03-01T15:27:22;13.85;;;9.20;;
23782;SDS011;12071;50.850;4.446;2023-03-01T15:29:59;11.95;;;9.00;;
23782;SDS011;12071;50.850;4.446;2023-03-01T15:34:57;14.77;;;9.13;;
23782;SDS011;12071;50.850;4.446;2023-03-01T15:37:43;10.02;;;8.07;;
23782;SDS011;12071;50.850;4.446;2023-03-01T15:40:31;11.98;;;9.00;;
23782;SDS011;12071;50.850;4.446;2023-03-01T15:42:57;10.65;;;8.60;;
23782;SDS011;12071;50.850;4.446;2023-03-01T15:45:28;11.67;;;8.77;;
23782;SDS011;12071;50.850;4.446;2023-03-01T15:50:30;11.07;;;8.25;;
23782;SDS011;12071;50.850;4.446;2023-03-01T15:52:59;12.32;;;8.20;;
23782;SDS011;12071;50.850;4.446;2023-03-01T15:55:27;12.40;;;8.57;;
23782;SDS011;12071;50.850;4.446;2023-03-01T15:58:02;13.60;;;8.32;;
23782;SDS011;12071;50.850;4.446;2023-03-01T16:00:31;13.10;;;8.23;;
23782;SDS011;12071;50.850;4.446;2023-03-01T16:02:58;11.88;;;8.25;;
23782;SDS011;12071;50.850;4.446;2023-03-01T16:05:31;13.38;;;9.15;;
23782;SDS011;12071;50.850;4.446;2023-03-01T16:07:59;12.90;;;7.95;;
23782;SDS011;12071;50.850;4.446;2023-03-01T16:10:25;14.65;;;7.97;;
23782;SDS011;12071;50.850;4.446;2023-03-01T16:12:52;10.95;;;8.00;;
23782;SDS011;12071;50.850;4.446;2023-03-01T16:15:19;14.95;;;8.05;;
23782;SDS011;12071;50.850;4.446;2023-03-01T16:17:47;12.15;;;7.78;;
23782;SDS011;12071;50.850;4.446;2023-03-01T16:20:12;13.68;;;7.88;;
23782;SDS011;12071;50.850;4.446;2023-03-01T16:22:41;14.75;;;7.88;;
23782;SDS011;12071;50.850;4.446;2023-03-01T16:25:08;11.52;;;7.75;;
23782;SDS011;12071;50.850;4.446;2023-03-01T16:27:38;10.40;;;6.80;;
23782;SDS011;12071;50.850;4.446;2023-03-01T16:30:07;14.88;;;7.43;;
23782;SDS011;12071;50.850;4.446;2023-03-01T16:32:37;10.73;;;7.30;;
23782;SDS011;12071;50.850;4.446;2023-03-01T16:35:06;12.35;;;7.68;;
23782;SDS011;12071;50.850;4.446;2023-03-01T16:37:33;11.57;;;7.18;;
23782;SDS011;12071;50.850;4.446;2023-03-01T16:39:59;11.32;;;7.72;;
23782;SDS011;12071;50.850;4.446;2023-03-01T16:42:25;10.57;;;7.43;;
23782;SDS011;12071;50.850;4.446;2023-03-01T16:44:54;13.07;;;7.68;;
23782;SDS011;12071;50.850;4.446;2023-03-01T16:47:21;8.38;;;6.68;;
23782;SDS011;12071;50.850;4.446;2023-03-01T16:49:46;13.50;;;7.57;;
23782;SDS011;12071;50.850;4.446;2023-03-01T16:52:12;9.98;;;6.85;;
23782;SDS011;12071;50.850;4.446;2023-03-01T16:54:38;11.43;;;6.95;;
23782;SDS011;12071;50.850;4.446;2023-03-01T16:57:03;10.27;;;7.00;;
23782;SDS011;12071;50.850;4.446;2023-03-01T16:59:29;11.10;;;7.38;;
23782;SDS011;12071;50.850;4.446;2023-03-01T17:01:55;11.15;;;7.25;;
23782;SDS011;12071;50.850;4.446;2023-03-01T17:04:21;13.38;;;7.68;;
23782;SDS011;12071;50.850;4.446;2023-03-01T17:06:46;10.07;;;6.88;;
23782;SDS011;12071;50.850;4.446;2023-03-01T17:09:13;11.70;;;7.10;;
23782;SDS011;12071;50.850;4.446;2023-03-01T17:11:39;11.93;;;7.88;;
23782;SDS011;12071;50.850;4.446;2023-03-01T17:14:05;12.40;;;8.05;;
23782;SDS011;12071;50.850;4.446;2023-03-01T17:16:31;10.82;;;7.45;;
23782;SDS011;12071;50.850;4.446;2023-03-01T17:18:57;12.80;;;8.13;;